Time,TemperatureF,DewpointF,PressureIn,WindDirection,WindDirectionDegrees,WindSpeedMPH,WindSpeedGustMPH,Humidity,HourlyPrecipIn,Conditions,Clouds,dailyrainin,SoftwareType,DateUTC
2013-04-01 00:03:00,53.0,-99.9,30.06,East,101,9.0,12.0,-999,-99.99,,,-99.99,,2013-04-01 07:03:00,
2013-04-01 00:13:00,53.0,-99.9,30.06,ESE,109,7.0,14.0,-999,-99.99,,,-99.99,,2013-04-01 07:13:00,
2013-04-01 00:22:00,54.0,-99.9,30.06,ESE,119,9.0,13.0,-999,-99.99,,,-99.99,,2013-04-01 07:22:00,
2013-04-01 00:32:00,53.0,-99.9,30.05,ESE,119,9.0,13.0,-999,-99.99,,,-99.99,,2013-04-01 07:32:00,
2013-04-01 00:43:00,53.0,-99.9,30.05,ESE,121,11.0,14.0,-999,-99.99,,,-99.99,,2013-04-01 07:43:00,
2013-04-01 00:53:00,54.0,-99.9,30.05,ESE,116,11.0,14.0,-999,-99.99,,,-99.99,,2013-04-01 07:53:00,
2013-04-01 01:03:00,53.0,-99.9,30.06,ESE,113,9.0,13.0,-999,-99.99,,,-99.99,,2013-04-01 08:03:00,
2013-04-01 01:13:00,53.0,-99.9,30.06,ESE,118,12.0,15.0,-999,-99.99,,,-99.99,,2013-04-01 08:13:00,
2013-04-01 01:22:00,53.0,-99.9,30.06,ESE,116,8.0,14.0,-999,-99.99,,,-99.99,,2013-04-01 08:22:00,
2013-04-01 01:32:00,53.0,-99.9,30.06,ESE,117,11.0,15.0,-999,-99.99,,,-99.99,,2013-04-01 08:32:00,
2013-04-01 01:43:00,53.0,-99.9,30.06,ESE,120,8.0,14.0,-999,-99.99,,,-99.99,,2013-04-01 08:43:00,
2013-04-01 01:53:00,53.0,-99.9,30.06,ESE,106,7.0,11.0,-999,-99.99,,,-99.99,,2013-04-01 08:53:00,
2013-04-01 02:03:00,53.0,-99.9,30.06,ESE,116,9.0,12.0,-999,-99.99,,,-99.99,,2013-04-01 09:03:00,
2013-04-01 02:12:00,53.0,-99.9,30.06,ESE,113,6.0,9.0,-999,-99.99,,,-99.99,,2013-04-01 09:12:00,
2013-04-01 02:23:00,53.0,-99.9,30.06,ESE,116,4.0,9.0,-999,-99.99,,,-99.99,,2013-04-01 09:23:00,
2013-04-01 02:33:00,53.0,-99.9,30.07,ESE,121,5.0,7.0,-999,-99.99,,,-99.99,,2013-04-01 09:33:00,
2013-04-01 02:43:00,53.0,-99.9,30.07,ESE,112,3.0,8.0,-999,-99.99,,,-99.99,,2013-04-01 09:43:00,
2013-04-01 02:54:00,53.0,-99.9,30.07,ESE,109,5.0,9.0,-999,-99.99,,,-99.99,,2013-04-01 09:54:00,
2013-04-01 03:03:00,53.0,-99.9,30.07,SE,137,3.0,7.0,-999,-99.99,,,-99.99,,2013-04-01 10:03:00,
2013-04-01 03:13:00,53.0,-99.9,30.08,ESE,116,5.0,7.0,-999,-99.99,,,-99.99,,2013-04-01 10:13:00,
2013-04-01 03:24:00,53.0,-99.9,30.07,ESE,118,5.0,7.0,-999,-99.99,,,-99.99,,2013-04-01 10:24:00,
2013-04-01 03:34:00,53.0,-99.9,30.07,ESE,118,4.0,7.0,-999,-99.99,,,-99.99,,2013-04-01 10:34:00,
2013-04-01 03:43:00,53.0,-99.9,30.07,SE,127,5.0,7.0,-999,-99.99,,,-99.99,,2013-04-01 10:43:00,
2013-04-01 03:54:00,53.0,-99.9,30.07,ESE,123,6.0,8.0,-999,-99.99,,,-99.99,,2013-04-01 10:54:00,
2013-04-01 04:03:00,53.0,-99.9,30.07,ESE,121,6.0,8.0,-999,-99.99,,,-99.99,,2013-04-01 11:03:00,
2013-04-01 04:13:00,53.0,-99.9,30.07,ESE,116,6.0,7.0,-999,-99.99,,,-99.99,,2013-04-01 11:13:00,
2013-04-01 04:23:00,53.0,-99.9,30.07,ESE,107,3.0,9.0,-999,-99.99,,,-99.99,,2013-04-01 11:23:00,
2013-04-01 04:33:00,53.0,-99.9,30.07,SE,124,5.0,7.0,-999,-99.99,,,-99.99,,2013-04-01 11:33:00,
2013-04-01 04:43:00,53.0,-99.9,30.07,ESE,113,5.0,7.0,-999,-99.99,,,-99.99,,2013-04-01 11:43:00,
2013-04-01 04:53:00,53.0,-99.9,30.07,SE,125,5.0,9.0,-999,-99.99,,,-99.99,,2013-04-01 11:53:00,
2013-04-01 05:03:00,53.0,-99.9,30.08,ESE,118,7.0,10.0,-999,-99.99,,,-99.99,,2013-04-01 12:03:00,
2013-04-01 05:12:00,53.0,-99.9,30.08,ESE,120,6.0,9.0,-999,-99.99,,,-99.99,,2013-04-01 12:12:00,
2013-04-01 05:23:00,53.0,-99.9,30.08,ESE,114,4.0,6.0,-999,-99.99,,,-99.99,,2013-04-01 12:23:00,
2013-04-01 05:32:00,53.0,-99.9,30.08,SE,142,2.0,5.0,-999,-99.99,,,-99.99,,2013-04-01 12:32:00,
2013-04-01 05:43:00,53.0,-99.9,30.08,SSW,193,2.0,3.0,-999,-99.99,,,-99.99,,2013-04-01 12:43:00,
2013-04-01 05:53:00,53.0,-99.9,30.09,South,183,2.0,3.0,-999,-99.99,,,-99.99,,2013-04-01 12:53:00,
2013-04-01 06:03:00,53.0,-99.9,30.09,SSE,159,1.0,4.0,-999,-99.99,,,-99.99,,2013-04-01 13:03:00,
2013-04-01 06:12:00,53.0,-99.9,30.09,WSW,237,1.0,2.0,-999,-99.99,,,-99.99,,2013-04-01 13:12:00,
2013-04-01 06:23:00,53.0,-99.9,30.09,South,178,1.0,2.0,-999,-99.99,,,-99.99,,2013-04-01 13:23:00,
2013-04-01 06:33:00,53.0,-99.9,30.10,South,186,2.0,3.0,-999,-99.99,,,-99.99,,2013-04-01 13:33:00,
2013-04-01 06:43:00,53.0,-99.9,30.09,SSW,209,2.0,3.0,-999,-99.99,,,-99.99,,2013-04-01 13:43:00,
2013-04-01 06:53:00,53.0,-99.9,30.09,SW,233,0.0,3.0,-999,-99.99,,,-99.99,,2013-04-01 13:53:00,
2013-04-01 07:04:00,53.0,-99.9,30.09,SW,220,1.0,2.0,-999,-99.99,,,-99.99,,2013-04-01 14:04:00,
2013-04-01 07:13:00,53.0,-99.9,30.10,NNW,347,4.0,5.0,-999,-99.99,,,-99.99,,2013-04-01 14:13:00,
2013-04-01 07:23:00,53.0,-99.9,30.11,NE,55,2.0,5.0,-999,-99.99,,,-99.99,,2013-04-01 14:23:00,
2013-04-01 07:33:00,53.0,-99.9,30.11,ESE,106,3.0,4.0,-999,-99.99,,,-99.99,,2013-04-01 14:33:00,
2013-04-01 07:43:00,53.0,-99.9,30.11,East,95,3.0,4.0,-999,-99.99,,,-99.99,,2013-04-01 14:43:00,
2013-04-01 07:53:00,53.0,-99.9,30.11,SE,127,2.0,4.0,-999,-99.99,,,-99.99,,2013-04-01 14:53:00,
2013-04-01 08:03:00,53.0,-99.9,30.11,SE,125,3.0,5.0,-999,-99.99,,,-99.99,,2013-04-01 15:03:00,
2013-04-01 08:13:00,53.0,-99.9,30.12,ESE,120,4.0,6.0,-999,-99.99,,,-99.99,,2013-04-01 15:13:00,
2013-04-01 08:23:00,53.0,-99.9,30.12,ESE,107,4.0,5.0,-999,-99.99,,,-99.99,,2013-04-01 15:23:00,
2013-04-01 08:34:00,53.0,-99.9,30.12,SE,128,4.0,4.0,-999,-99.99,,,-99.99,,2013-04-01 15:34:00,
2013-04-01 08:44:00,53.0,-99.9,30.13,SE,136,4.0,5.0,-999,-99.99,,,-99.99,,2013-04-01 15:44:00,
2013-04-01 08:54:00,53.0,-99.9,30.13,ESE,112,3.0,4.0,-999,-99.99,,,-99.99,,2013-04-01 15:54:00,
2013-04-01 09:03:00,53.0,-99.9,30.13,ESE,112,3.0,4.0,-999,-99.99,,,-99.99,,2013-04-01 16:03:00,
2013-04-01 09:13:00,54.0,-99.9,30.13,South,191,2.0,4.0,-999,-99.99,,,-99.99,,2013-04-01 16:13:00,
2013-04-01 09:23:00,53.0,-99.9,30.14,South,181,1.0,3.0,-999,-99.99,,,-99.99,,2013-04-01 16:23:00,
2013-04-01 09:33:00,54.0,-99.9,30.14,NE,44,4.0,6.0,-999,-99.99,,,-99.99,,2013-04-01 16:33:00,
2013-04-01 09:43:00,54.0,-99.9,30.14,SE,136,1.0,2.0,-999,-99.99,,,-99.99,,2013-04-01 16:43:00,
2013-04-01 09:53:00,54.0,-99.9,30.14,East,92,5.0,6.0,-999,-99.99,,,-99.99,,2013-04-01 16:53:00,
2013-04-01 10:03:00,54.0,-99.9,30.15,East,92,3.0,4.0,-999,-99.99,,,-99.99,,2013-04-01 17:03:00,
2013-04-01 10:13:00,54.0,-99.9,30.15,East,90,4.0,4.0,-999,-99.99,,,-99.99,,2013-04-01 17:13:00,
2013-04-01 10:23:00,55.0,-99.9,30.15,ENE,66,0.0,1.0,-999,-99.99,,,-99.99,,2013-04-01 17:23:00,
2013-04-01 10:32:00,55.0,-99.9,30.15,ENE,66,0.0,1.0,-999,-99.99,,,-99.99,,2013-04-01 17:32:00,
2013-04-01 10:42:00,55.0,-99.9,30.16,ENE,70,2.0,3.0,-999,-99.99,,,-99.99,,2013-04-01 17:42:00,
2013-04-01 10:53:00,54.0,-99.9,30.16,ENE,74,2.0,4.0,-999,-99.99,,,-99.99,,2013-04-01 17:53:00,
2013-04-01 11:03:00,55.0,-99.9,30.16,ESE,121,3.0,4.0,-999,-99.99,,,-99.99,,2013-04-01 18:03:00,
2013-04-01 11:12:00,55.0,-99.9,30.16,ESE,117,3.0,5.0,-999,-99.99,,,-99.99,,2013-04-01 18:12:00,
2013-04-01 11:22:00,55.0,-99.9,30.16,ENE,72,2.0,3.0,-999,-99.99,,,-99.99,,2013-04-01 18:22:00,
2013-04-01 11:33:00,56.0,-99.9,30.16,ESE,103,2.0,4.0,-999,-99.99,,,-99.99,,2013-04-01 18:33:00,
2013-04-01 11:43:00,56.0,-99.9,30.16,ESE,109,3.0,5.0,-999,-99.99,,,-99.99,,2013-04-01 18:43:00,
2013-04-01 11:54:00,57.0,-99.9,30.16,SE,133,3.0,5.0,-999,-99.99,,,-99.99,,2013-04-01 18:54:00,
2013-04-01 12:04:00,56.0,-99.9,30.17,East,97,4.0,6.0,-999,-99.99,,,-99.99,,2013-04-01 19:04:00,
2013-04-01 12:13:00,56.0,-99.9,30.17,ESE,116,4.0,5.0,-999,-99.99,,,-99.99,,2013-04-01 19:13:00,
2013-04-01 12:23:00,56.0,-99.9,30.17,ESE,103,3.0,5.0,-999,-99.99,,,-99.99,,2013-04-01 19:23:00,
2013-04-01 12:33:00,56.0,-99.9,30.17,ESE,103,3.0,5.0,-999,-99.99,,,-99.99,,2013-04-01 19:33:00,
2013-04-01 12:43:00,55.0,-99.9,30.17,ESE,112,5.0,10.0,-999,-99.99,,,-99.99,,2013-04-01 19:43:00,
2013-04-01 12:53:00,55.0,-99.9,30.18,SSE,147,4.0,8.0,-999,-99.99,,,-99.99,,2013-04-01 19:53:00,
2013-04-01 13:02:00,55.0,-99.9,30.18,South,171,3.0,7.0,-999,-99.99,,,-99.99,,2013-04-01 20:02:00,
2013-04-01 13:13:00,55.0,-99.9,30.18,SSE,158,4.0,7.0,-999,-99.99,,,-99.99,,2013-04-01 20:13:00,
2013-04-01 13:23:00,55.0,-99.9,30.18,SSE,161,3.0,7.0,-999,-99.99,,,-99.99,,2013-04-01 20:23:00,
2013-04-01 13:33:00,55.0,-99.9,30.18,SSE,148,5.0,8.0,-999,-99.99,,,-99.99,,2013-04-01 20:33:00,
2013-04-01 13:43:00,55.0,-99.9,30.18,SE,140,6.0,8.0,-999,-99.99,,,-99.99,,2013-04-01 20:43:00,
2013-04-01 13:52:00,55.0,-99.9,30.18,SSE,162,4.0,8.0,-999,-99.99,,,-99.99,,2013-04-01 20:52:00,
2013-04-01 14:03:00,56.0,-99.9,30.18,SSE,150,4.0,7.0,-999,-99.99,,,-99.99,,2013-04-01 21:03:00,
2013-04-01 14:12:00,55.0,-99.9,30.18,SE,146,5.0,9.0,-999,-99.99,,,-99.99,,2013-04-01 21:12:00,
2013-04-01 14:23:00,56.0,-99.9,30.18,SE,144,4.0,8.0,-999,-99.99,,,-99.99,,2013-04-01 21:23:00,
2013-04-01 14:33:00,56.0,-99.9,30.18,SSW,212,2.0,6.0,-999,-99.99,,,-99.99,,2013-04-01 21:33:00,
2013-04-01 14:44:00,55.0,-99.9,30.18,South,182,5.0,7.0,-999,-99.99,,,-99.99,,2013-04-01 21:44:00,
2013-04-01 14:53:00,55.0,-99.9,30.17,South,175,5.0,8.0,-999,-99.99,,,-99.99,,2013-04-01 21:53:00,
2013-04-01 15:03:00,56.0,-99.9,30.17,South,190,4.0,8.0,-999,-99.99,,,-99.99,,2013-04-01 22:03:00,
2013-04-01 15:13:00,55.0,-99.9,30.17,SSW,202,6.0,9.0,-999,-99.99,,,-99.99,,2013-04-01 22:13:00,
2013-04-01 15:23:00,55.0,-99.9,30.17,SSW,207,6.0,8.0,-999,-99.99,,,-99.99,,2013-04-01 22:23:00,
2013-04-01 15:33:00,56.0,-99.9,30.17,SSW,204,6.0,8.0,-999,-99.99,,,-99.99,,2013-04-01 22:33:00,
2013-04-01 15:44:00,56.0,-99.9,30.16,SSW,194,5.0,9.0,-999,-99.99,,,-99.99,,2013-04-01 22:44:00,
2013-04-01 15:52:00,56.0,-99.9,30.16,SSW,196,5.0,9.0,-999,-99.99,,,-99.99,,2013-04-01 22:52:00,
2013-04-01 16:02:00,56.0,-99.9,30.16,SSW,194,6.0,9.0,-999,-99.99,,,-99.99,,2013-04-01 23:02:00,
2013-04-01 16:12:00,56.0,-99.9,30.16,South,188,5.0,8.0,-999,-99.99,,,-99.99,,2013-04-01 23:12:00,
2013-04-01 16:23:00,57.0,-99.9,30.16,SW,219,2.0,5.0,-999,-99.99,,,-99.99,,2013-04-01 23:23:00,
2013-04-01 16:32:00,58.0,-99.9,30.16,West,260,3.0,6.0,-999,-99.99,,,-99.99,,2013-04-01 23:32:00,
2013-04-01 16:43:00,57.0,-99.9,30.15,SSW,195,5.0,7.0,-999,-99.99,,,-99.99,,2013-04-01 23:43:00,
2013-04-01 16:53:00,58.0,-99.9,30.15,SW,221,3.0,6.0,-999,-99.99,,,-99.99,,2013-04-01 23:53:00,
2013-04-01 17:03:00,58.0,-99.9,30.15,West,266,3.0,7.0,-999,-99.99,,,-99.99,,2013-04-02 00:03:00,
2013-04-01 17:12:00,58.0,-99.9,30.15,WNW,289,7.0,9.0,-999,-99.99,,,-99.99,,2013-04-02 00:12:00,
2013-04-01 17:23:00,58.0,-99.9,30.15,West,279,7.0,9.0,-999,-99.99,,,-99.99,,2013-04-02 00:23:00,
2013-04-01 17:33:00,57.0,-99.9,30.16,WNW,285,9.0,11.0,-999,-99.99,,,-99.99,,2013-04-02 00:33:00,
2013-04-01 17:43:00,56.0,-99.9,30.16,West,279,8.0,11.0,-999,-99.99,,,-99.99,,2013-04-02 00:43:00,
2013-04-01 17:53:00,56.0,-99.9,30.16,West,275,7.0,9.0,-999,-99.99,,,-99.99,,2013-04-02 00:53:00,
2013-04-01 18:03:00,56.0,-99.9,30.16,West,270,6.0,8.0,-999,-99.99,,,-99.99,,2013-04-02 01:03:00,
2013-04-01 18:12:00,56.0,-99.9,30.16,West,279,7.0,9.0,-999,-99.99,,,-99.99,,2013-04-02 01:12:00,
2013-04-01 18:22:00,56.0,-99.9,30.16,West,271,6.0,8.0,-999,-99.99,,,-99.99,,2013-04-02 01:22:00,
2013-04-01 18:32:00,56.0,-99.9,30.16,West,275,7.0,8.0,-999,-99.99,,,-99.99,,2013-04-02 01:32:00,
2013-04-01 18:43:00,56.0,-99.9,30.16,WNW,284,7.0,9.0,-999,-99.99,,,-99.99,,2013-04-02 01:43:00,
2013-04-01 18:53:00,56.0,-99.9,30.16,West,276,7.0,9.0,-999,-99.99,,,-99.99,,2013-04-02 01:53:00,
2013-04-01 19:03:00,56.0,-99.9,30.16,West,281,7.0,9.0,-999,-99.99,,,-99.99,,2013-04-02 02:03:00,
2013-04-01 19:12:00,55.0,-99.9,30.16,West,280,5.0,6.0,-999,-99.99,,,-99.99,,2013-04-02 02:12:00,
2013-04-01 19:23:00,55.0,-99.9,30.16,West,274,6.0,7.0,-999,-99.99,,,-99.99,,2013-04-02 02:23:00,
2013-04-01 19:33:00,54.0,-99.9,30.16,West,276,4.0,6.0,-999,-99.99,,,-99.99,,2013-04-02 02:33:00,
2013-04-01 19:43:00,54.0,-99.9,30.16,WNW,286,3.0,5.0,-999,-99.99,,,-99.99,,2013-04-02 02:43:00,
2013-04-01 19:53:00,53.0,-99.9,30.16,WNW,283,3.0,6.0,-999,-99.99,,,-99.99,,2013-04-02 02:53:00,
2013-04-01 20:02:00,53.0,-99.9,30.16,West,273,5.0,7.0,-999,-99.99,,,-99.99,,2013-04-02 03:02:00,
2013-04-01 20:13:00,53.0,-99.9,30.16,West,265,6.0,8.0,-999,-99.99,,,-99.99,,2013-04-02 03:13:00,
2013-04-01 20:22:00,53.0,-99.9,30.17,West,268,8.0,9.0,-999,-99.99,,,-99.99,,2013-04-02 03:22:00,
2013-04-01 20:33:00,53.0,-99.9,30.17,West,266,9.0,11.0,-999,-99.99,,,-99.99,,2013-04-02 03:33:00,
2013-04-01 20:43:00,53.0,-99.9,30.17,West,265,8.0,10.0,-999,-99.99,,,-99.99,,2013-04-02 03:43:00,
2013-04-01 20:53:00,53.0,-99.9,30.17,WSW,258,8.0,9.0,-999,-99.99,,,-99.99,,2013-04-02 03:53:00,
2013-04-01 21:03:00,54.0,-99.9,30.18,West,264,8.0,10.0,-999,-99.99,,,-99.99,,2013-04-02 04:03:00,
2013-04-01 21:13:00,54.0,-99.9,30.18,West,268,8.0,9.0,-999,-99.99,,,-99.99,,2013-04-02 04:13:00,
2013-04-01 21:23:00,53.0,-99.9,30.17,West,273,4.0,8.0,-999,-99.99,,,-99.99,,2013-04-02 04:23:00,
2013-04-01 21:33:00,54.0,-99.9,30.18,WNW,294,4.0,7.0,-999,-99.99,,,-99.99,,2013-04-02 04:33:00,
2013-04-01 21:43:00,54.0,-99.9,30.18,West,274,6.0,7.0,-999,-99.99,,,-99.99,,2013-04-02 04:43:00,
2013-04-01 21:53:00,53.0,-99.9,30.18,West,265,6.0,7.0,-999,-99.99,,,-99.99,,2013-04-02 04:53:00,
2013-04-01 22:02:00,53.0,-99.9,30.18,West,262,6.0,7.0,-999,-99.99,,,-99.99,,2013-04-02 05:02:00,
2013-04-01 22:12:00,53.0,-99.9,30.18,West,267,6.0,8.0,-999,-99.99,,,-99.99,,2013-04-02 05:12:00,
2013-04-01 22:23:00,53.0,-99.9,30.18,WSW,256,4.0,7.0,-999,-99.99,,,-99.99,,2013-04-02 05:23:00,
2013-04-01 22:33:00,52.0,-99.9,30.18,West,270,5.0,8.0,-999,-99.99,,,-99.99,,2013-04-02 05:33:00,
2013-04-01 22:43:00,53.0,-99.9,30.17,WNW,284,6.0,7.0,-999,-99.99,,,-99.99,,2013-04-02 05:43:00,
2013-04-01 22:52:00,53.0,-99.9,30.17,NW,313,6.0,6.0,-999,-99.99,,,-99.99,,2013-04-02 05:52:00,
2013-04-01 23:03:00,53.0,-99.9,30.17,WNW,299,5.0,6.0,-999,-99.99,,,-99.99,,2013-04-02 06:03:00,
2013-04-01 23:12:00,53.0,-99.9,30.16,WNW,285,5.0,6.0,-999,-99.99,,,-99.99,,2013-04-02 06:12:00,
2013-04-01 23:22:00,53.0,-99.9,30.16,WNW,283,6.0,7.0,-999,-99.99,,,-99.99,,2013-04-02 06:22:00,
2013-04-01 23:32:00,53.0,-99.9,30.17,WNW,283,6.0,8.0,-999,-99.99,,,-99.99,,2013-04-02 06:32:00,
2013-04-01 23:42:00,53.0,-99.9,30.17,WNW,283,6.0,8.0,-999,-99.99,,,-99.99,,2013-04-02 06:42:00,
2013-04-01 23:52:00,53.0,-99.9,30.17,West,280,6.0,7.0,-999,-99.99,,,-99.99,,2013-04-02 06:52:00,